createdAt,value
2022-10-23T00:01:01.655Z,101013.16
2022-10-23T00:03:28.564Z,101015.66
2022-10-23T00:05:55.451Z,101006.50
2022-10-23T00:08:22.233Z,100999.31
2022-10-23T00:10:57.477Z,101003.72
2022-10-23T00:13:24.303Z,101001.91
2022-10-23T00:18:22.798Z,101012.97
2022-10-23T00:20:49.644Z,101016.81
2022-10-23T00:23:17.112Z,101015.22
2022-10-23T00:25:43.947Z,101020.75
2022-10-23T00:28:10.917Z,101019.22
2022-10-23T00:30:37.758Z,101017.56
2022-10-23T00:33:04.532Z,101008.03
2022-10-23T00:35:31.354Z,101010.09
2022-10-23T00:37:58.198Z,101004.03
2022-10-23T00:40:24.989Z,101015.97
2022-10-23T00:42:51.818Z,101016.13
2022-10-23T00:45:22.615Z,101016.31
2022-10-23T00:47:49.898Z,101018.19
2022-10-23T00:50:17.666Z,101022.63
2022-10-23T00:52:49.679Z,101035.19
2022-10-23T00:55:17.676Z,101035.19
2022-10-23T00:57:47.006Z,101045.00
2022-10-23T01:00:18.501Z,101039.66
2022-10-23T01:02:45.777Z,101038.72
2022-10-23T01:05:12.802Z,101047.84
2022-10-23T01:07:48.203Z,101049.84
2022-10-23T01:10:47.614Z,101061.75
2022-10-23T01:13:35.683Z,101063.69
2022-10-23T01:16:06.037Z,101073.91
2022-10-23T01:18:46.815Z,101079.12
2022-10-23T01:21:19.224Z,101069.78
2022-10-23T01:24:04.786Z,101063.69
2022-10-23T01:26:49.581Z,101086.53
2022-10-23T01:29:25.162Z,101081.50
2022-10-23T01:31:56.347Z,101085.28
2022-10-23T01:34:32.863Z,101088.13
2022-10-23T01:37:01.661Z,101082.31
2022-10-23T01:39:33.625Z,101065.72
2022-10-23T01:42:05.991Z,101079.59
2022-10-23T01:44:38.329Z,101078.00
2022-10-23T01:47:07.483Z,101090.06
2022-10-23T01:49:34.737Z,101086.59
2022-10-23T01:52:03.534Z,101085.75
2022-10-23T01:54:32.472Z,101096.59
2022-10-23T01:56:59.759Z,101093.28
2022-10-23T01:59:36.826Z,101098.25
2022-10-23T02:02:05.057Z,101103.00
2022-10-23T02:04:40.340Z,101104.13
2022-10-23T02:07:07.250Z,101103.62
2022-10-23T02:09:34.532Z,101083.53
2022-10-23T02:12:09.563Z,101099.22
2022-10-23T02:14:53.522Z,101094.09
2022-10-23T02:17:52.727Z,101100.22
2022-10-23T02:20:24.170Z,101090.28
2022-10-23T02:23:00.659Z,101098.50
2022-10-23T02:25:32.221Z,101107.53
2022-10-23T02:28:01.105Z,101099.75
2022-10-23T02:30:29.365Z,101107.03
2022-10-23T02:32:56.445Z,101104.50
2022-10-23T02:35:24.187Z,101102.13
2022-10-23T02:37:55.536Z,101101.25
2022-10-23T02:40:24.531Z,101102.97
2022-10-23T02:42:58.480Z,101101.53
2022-10-23T02:45:47.068Z,101107.09
2022-10-23T02:48:19.653Z,101108.91
2022-10-23T02:50:57.602Z,101108.37
2022-10-23T02:53:49.301Z,101106.94
2022-10-23T02:56:23.459Z,101109.47
2022-10-23T02:59:05.479Z,101111.28
2022-10-23T03:01:39.103Z,101115.81
2022-10-23T03:04:06.871Z,101122.09
2022-10-23T03:06:33.788Z,101122.97
2022-10-23T03:09:06.805Z,101125.69
2022-10-23T03:11:33.759Z,101129.22
2022-10-23T03:14:00.600Z,101139.06
2022-10-23T03:16:27.892Z,101139.94
2022-10-23T03:18:54.864Z,101140.81
2022-10-23T03:21:22.009Z,101139.06
2022-10-23T03:23:48.762Z,101140.00
2022-10-23T03:26:15.958Z,101137.63
2022-10-23T03:28:43.255Z,101135.94
2022-10-23T03:31:10.066Z,101127.47
2022-10-23T03:33:36.891Z,101133.59
2022-10-23T03:36:04.003Z,101142.81
2022-10-23T03:38:30.872Z,101141.87
2022-10-23T03:40:57.802Z,101141.97
2022-10-23T03:43:24.621Z,101136.66
2022-10-23T03:45:52.097Z,101151.09
2022-10-23T03:48:18.936Z,101152.91
2022-10-23T03:50:45.712Z,101147.59
2022-10-23T03:53:12.466Z,101147.59
2022-10-23T03:55:39.216Z,101154.88
2022-10-23T03:58:06.142Z,101156.69
2022-10-23T04:00:32.985Z,101160.47
2022-10-23T04:02:59.850Z,101155.44
2022-10-23T04:05:26.785Z,101158.19
2022-10-23T04:07:53.767Z,101163.59
2022-10-23T04:10:20.740Z,101171.88
2022-10-23T04:12:47.543Z,101179.03
2022-10-23T04:15:14.310Z,101173.69
2022-10-23T04:17:41.154Z,101178.94
2022-10-23T04:20:08.528Z,101175.28
2022-10-23T04:22:35.356Z,101182.25
2022-10-23T04:25:02.374Z,101175.66
2022-10-23T04:27:29.230Z,101178.97
2022-10-23T04:29:58.321Z,101172.59
2022-10-23T04:32:26.261Z,101172.50
2022-10-23T04:34:53.156Z,101166.19
2022-10-23T04:37:19.952Z,101158.38
2022-10-23T04:39:46.742Z,101169.03
2022-10-23T04:42:13.969Z,101168.06
2022-10-23T04:44:40.819Z,101172.94
2022-10-23T04:47:07.695Z,101177.53
2022-10-23T04:49:35.414Z,101175.69
2022-10-23T04:52:02.283Z,101173.31
2022-10-23T04:54:29.099Z,101178.19
2022-10-23T04:56:55.936Z,101178.03
2022-10-23T04:59:22.848Z,101175.84
2022-10-23T05:01:49.713Z,101186.47
2022-10-23T05:04:16.593Z,101185.38
2022-10-23T05:06:43.417Z,101183.47
2022-10-23T05:09:10.310Z,101180.69
2022-10-23T05:11:37.168Z,101177.41
2022-10-23T05:14:03.925Z,101180.19
2022-10-23T05:16:39.879Z,101178.22
2022-10-23T05:19:07.988Z,101187.00
2022-10-23T05:21:36.368Z,101186.22
2022-10-23T05:24:03.332Z,101184.47
2022-10-23T05:26:31.855Z,101181.94
2022-10-23T05:28:58.648Z,101181.12
2022-10-23T05:31:25.872Z,101191.94
2022-10-23T05:33:54.411Z,101190.00
2022-10-23T05:36:21.787Z,101185.47
2022-10-23T05:38:48.606Z,101189.75
2022-10-23T05:41:15.551Z,101194.91
2022-10-23T05:43:42.378Z,101193.06
2022-10-23T05:46:09.268Z,101192.94
2022-10-23T05:48:36.160Z,101197.09
2022-10-23T05:51:05.300Z,101194.66
2022-10-23T05:53:32.346Z,101181.81
2022-10-23T05:56:08.720Z,101200.13
2022-10-23T05:58:35.625Z,101212.94
2022-10-23T06:01:10.287Z,101213.50
2022-10-23T06:03:38.272Z,101219.31
2022-10-23T06:06:06.490Z,101207.47
2022-10-23T06:08:33.961Z,101226.09
2022-10-23T06:11:12.483Z,101216.81
2022-10-23T06:13:39.872Z,101228.22
2022-10-23T06:16:11.379Z,101243.75
2022-10-23T06:18:38.248Z,101252.19
2022-10-23T06:21:05.500Z,101242.81
2022-10-23T06:23:33.648Z,101234.47
2022-10-23T06:26:00.664Z,101229.72
2022-10-23T06:28:27.875Z,101227.72
2022-10-23T06:30:54.886Z,101235.19
2022-10-23T06:33:21.755Z,101249.09
2022-10-23T06:35:48.726Z,101245.06
2022-10-23T06:38:15.612Z,101239.22
2022-10-23T06:40:42.453Z,101245.03
2022-10-23T06:43:09.308Z,101240.41
2022-10-23T06:45:36.069Z,101252.38
2022-10-23T06:48:02.855Z,101257.44
2022-10-23T06:50:32.565Z,101249.88
2022-10-23T06:52:59.331Z,101252.00
2022-10-23T06:55:26.182Z,101258.50
2022-10-23T06:57:53.680Z,101255.31
2022-10-23T07:00:21.620Z,101247.56
2022-10-23T07:02:48.524Z,101256.00
2022-10-23T07:05:15.525Z,101247.81
2022-10-23T07:07:42.390Z,101238.28
2022-10-23T07:10:09.681Z,101248.47
2022-10-23T07:12:37.620Z,101247.34
2022-10-23T07:15:06.618Z,101250.69
2022-10-23T07:17:34.131Z,101250.78
2022-10-23T07:20:01.127Z,101254.31
2022-10-23T07:22:27.984Z,101266.78
2022-10-23T07:24:54.774Z,101272.41
2022-10-23T07:27:21.617Z,101264.34
2022-10-23T07:29:51.931Z,101272.78
2022-10-23T07:32:19.111Z,101283.59
2022-10-23T07:34:45.900Z,101280.87
2022-10-23T07:37:12.732Z,101277.28
2022-10-23T07:39:39.532Z,101275.03
2022-10-23T07:42:06.367Z,101275.31
2022-10-23T07:44:33.195Z,101264.19
2022-10-23T07:47:00.015Z,101261.34
2022-10-23T07:49:26.895Z,101269.47
2022-10-23T07:51:54.041Z,101272.06
2022-10-23T07:54:21.016Z,101273.00
2022-10-23T07:56:47.875Z,101267.59
2022-10-23T07:59:14.928Z,101265.38
2022-10-23T08:01:42.733Z,101266.63
2022-10-23T08:04:10.711Z,101282.50
2022-10-23T08:06:38.500Z,101273.00
2022-10-23T08:09:06.741Z,101277.56
2022-10-23T08:11:35.892Z,101284.28
2022-10-23T08:14:04.689Z,101277.37
2022-10-23T08:16:34.368Z,101284.06
2022-10-23T08:19:01.506Z,101282.13
2022-10-23T08:21:28.456Z,101279.59
2022-10-23T08:23:59.788Z,101272.19
2022-10-23T08:26:30.607Z,101271.66
2022-10-23T08:29:00.572Z,101259.78
2022-10-23T08:31:28.080Z,101285.06
2022-10-23T08:33:54.857Z,101280.81
2022-10-23T08:36:23.839Z,101266.97
2022-10-23T08:38:53.633Z,101264.88
2022-10-23T08:41:33.775Z,101275.72
2022-10-23T08:44:24.161Z,101274.91
2022-10-23T08:46:59.215Z,101274.41
2022-10-23T08:49:37.925Z,101265.28
2022-10-23T08:52:27.864Z,101277.69
2022-10-23T08:55:13.282Z,101275.09
2022-10-23T08:57:54.678Z,101277.25
2022-10-23T09:00:21.610Z,101276.69
2022-10-23T09:02:50.709Z,101250.63
2022-10-23T09:05:48.716Z,101268.72
2022-10-23T09:08:18.523Z,101269.28
2022-10-23T09:10:56.440Z,101269.03
2022-10-23T09:13:38.103Z,101264.81
2022-10-23T09:16:23.448Z,101259.38
2022-10-23T09:18:50.476Z,101264.97
2022-10-23T09:21:17.683Z,101267.28
2022-10-23T09:23:44.635Z,101267.75
2022-10-23T09:26:16.657Z,101263.50
2022-10-23T09:28:56.368Z,101259.94
2022-10-23T09:31:23.308Z,101257.81
2022-10-23T09:33:59.806Z,101260.13
2022-10-23T09:36:29.237Z,101272.44
2022-10-23T09:38:58.985Z,101249.25
2022-10-23T09:41:37.067Z,101250.81
2022-10-23T09:44:47.882Z,101248.41
2022-10-23T09:47:23.993Z,101239.38
2022-10-23T09:49:54.158Z,101242.72
2022-10-23T09:52:29.187Z,101223.97
2022-10-23T09:55:02.641Z,101233.97
2022-10-23T09:57:35.723Z,101227.28
2022-10-23T10:00:17.033Z,101231.59
2022-10-23T10:03:05.195Z,101235.25
2022-10-23T10:05:36.913Z,101230.41
2022-10-23T10:08:05.820Z,101215.97
2022-10-23T10:10:39.947Z,101212.16
2022-10-23T10:13:26.622Z,101212.41
2022-10-23T10:15:57.159Z,101208.91
2022-10-23T10:18:32.626Z,101208.03
2022-10-23T10:21:25.425Z,101194.69
2022-10-23T10:24:02.084Z,101194.00
2022-10-23T10:29:18.006Z,101177.94
2022-10-23T10:32:06.302Z,101159.41
2022-10-23T10:34:49.067Z,101167.81
2022-10-23T10:37:26.635Z,101165.00
2022-10-23T10:40:15.259Z,101156.16
2022-10-23T10:43:08.391Z,101151.59
2022-10-23T10:45:42.184Z,101154.53
2022-10-23T10:48:37.569Z,101138.37
2022-10-23T10:51:09.487Z,101136.91
2022-10-23T10:54:01.152Z,101108.19
2022-10-23T10:56:29.970Z,101129.53
2022-10-23T10:59:02.059Z,101122.31
2022-10-23T11:01:35.013Z,101120.63
2022-10-23T11:04:14.639Z,101117.41
2022-10-23T11:06:44.819Z,101105.06
2022-10-23T11:09:21.125Z,101107.81
2022-10-23T11:11:48.775Z,101103.47
2022-10-23T11:14:24.088Z,101101.44
2022-10-23T11:17:01.513Z,101091.03
2022-10-23T11:19:37.726Z,101082.44
2022-10-23T11:22:28.323Z,101080.09
2022-10-23T11:24:58.401Z,101081.56
2022-10-23T11:27:35.356Z,101069.97
2022-10-23T11:30:15.851Z,101074.34
2022-10-23T11:32:55.441Z,101066.06
2022-10-23T11:36:00.612Z,101070.53
2022-10-23T11:38:34.230Z,101064.88
2022-10-23T11:41:06.437Z,101064.59
2022-10-23T11:43:36.946Z,101050.31
2022-10-23T11:46:35.324Z,101051.44
2022-10-23T11:49:07.374Z,101046.34
2022-10-23T11:51:37.405Z,101052.41
2022-10-23T11:54:10.236Z,101047.44
2022-10-23T11:56:38.656Z,101052.78
2022-10-23T11:59:42.885Z,101036.47
2022-10-23T12:02:33.835Z,101028.34
2022-10-23T12:05:29.600Z,101020.25
2022-10-23T12:07:59.214Z,101021.94
2022-10-23T12:10:43.387Z,101016.25
2022-10-23T12:13:29.077Z,101020.84
2022-10-23T12:15:58.580Z,101011.00
2022-10-23T12:18:28.130Z,101018.88
2022-10-23T12:20:59.711Z,101012.28
2022-10-23T12:23:48.501Z,101011.25
2022-10-23T12:26:35.398Z,101005.44
2022-10-23T12:29:36.117Z,100998.81
2022-10-23T12:32:30.853Z,100987.66
2022-10-23T12:35:36.592Z,100989.53
2022-10-23T12:38:12.384Z,100981.81
2022-10-23T12:40:39.183Z,100983.22
2022-10-23T12:43:36.365Z,100974.94
2022-10-23T12:46:29.423Z,100967.19
2022-10-23T12:48:58.105Z,100975.06
2022-10-23T12:51:34.174Z,100961.88
2022-10-23T12:54:02.009Z,100959.19
2022-10-23T12:56:35.508Z,100960.91
2022-10-23T12:59:03.958Z,100956.59
2022-10-23T13:01:34.649Z,100956.03
2022-10-23T13:04:07.516Z,100951.19
2022-10-23T13:06:34.841Z,100951.19
2022-10-23T13:09:01.766Z,100946.03
2022-10-23T13:11:29.985Z,100950.03
2022-10-23T13:13:57.256Z,100940.88
2022-10-23T13:16:26.112Z,100945.00
2022-10-23T13:18:54.436Z,100925.97
2022-10-23T13:21:27.047Z,100940.41
2022-10-23T13:23:54.497Z,100930.81
2022-10-23T13:26:21.629Z,100933.41
2022-10-23T13:28:48.499Z,100928.53
2022-10-23T13:31:15.277Z,100927.09
2022-10-23T13:33:45.081Z,100934.28
2022-10-23T13:36:14.825Z,100930.66
2022-10-23T13:38:47.119Z,100931.66
2022-10-23T13:41:18.937Z,100944.19
2022-10-23T13:43:47.426Z,100944.69
2022-10-23T13:46:15.143Z,100938.87
2022-10-23T13:48:42.216Z,100941.38
2022-10-23T13:51:22.698Z,100931.56
2022-10-23T13:53:50.312Z,100941.25
2022-10-23T13:56:19.568Z,100951.66
2022-10-23T13:58:46.386Z,100946.59
2022-10-23T14:01:32.699Z,100950.13
2022-10-23T14:04:00.026Z,100949.31
2022-10-23T14:06:27.013Z,100953.53
2022-10-23T14:08:53.840Z,100961.12
2022-10-23T14:11:21.391Z,100955.72
2022-10-23T14:13:49.028Z,100958.47
2022-10-23T14:16:18.279Z,100951.84
2022-10-23T14:18:45.232Z,100962.47
2022-10-23T14:21:14.085Z,100967.16
2022-10-23T14:23:41.002Z,100967.91
2022-10-23T14:26:16.860Z,100971.38
2022-10-23T14:28:44.320Z,100975.44
2022-10-23T14:31:13.391Z,100968.78
2022-10-23T14:33:41.065Z,100976.91
2022-10-23T14:36:08.573Z,100975.41
2022-10-23T14:38:35.501Z,100971.34
2022-10-23T14:41:02.889Z,100986.13
2022-10-23T14:43:29.683Z,100973.84
2022-10-23T14:45:56.489Z,100943.66
2022-10-23T14:48:24.472Z,100966.19
2022-10-23T14:50:56.747Z,100957.31
2022-10-23T14:53:24.454Z,100957.56
2022-10-23T14:55:51.367Z,100954.25
2022-10-23T14:58:18.474Z,100949.34
2022-10-23T15:00:45.339Z,100952.91
2022-10-23T15:03:12.251Z,100958.41
2022-10-23T15:05:41.767Z,100960.41
2022-10-23T15:08:08.616Z,100963.31
2022-10-23T15:10:37.413Z,100965.41
2022-10-23T15:13:04.405Z,100965.66
2022-10-23T15:15:31.538Z,100969.34
2022-10-23T15:17:58.527Z,100960.47
2022-10-23T15:20:25.382Z,100955.31
2022-10-23T15:22:52.164Z,100950.13
2022-10-23T15:25:19.292Z,100936.00
2022-10-23T15:27:46.352Z,100934.38
2022-10-23T15:30:14.608Z,100939.06
2022-10-23T15:32:41.826Z,100937.44
2022-10-23T15:35:08.869Z,100945.69
2022-10-23T15:37:36.507Z,100950.47
2022-10-23T15:40:03.706Z,100948.75
2022-10-23T15:42:31.169Z,100941.84
2022-10-23T15:44:58.012Z,100940.25
2022-10-23T15:47:25.164Z,100942.34
2022-10-23T15:49:52.106Z,100950.53
2022-10-23T15:52:19.118Z,100948.09
2022-10-23T15:54:45.964Z,100954.69
2022-10-23T15:57:12.791Z,100952.06
2022-10-23T15:59:39.937Z,100960.31
2022-10-23T16:02:07.110Z,100968.53
2022-10-23T16:04:35.374Z,100963.38
2022-10-23T16:07:02.241Z,100962.63
2022-10-23T16:09:29.786Z,100943.53
2022-10-23T16:11:56.673Z,100962.87
2022-10-23T16:14:23.602Z,100968.38
2022-10-23T16:16:50.606Z,100969.37
2022-10-23T16:19:18.673Z,100975.63
2022-10-23T16:21:45.781Z,100983.75
2022-10-23T16:24:12.636Z,100990.00
2022-10-23T16:26:39.679Z,100994.56
2022-10-23T16:29:08.516Z,100986.31
2022-10-23T16:31:35.656Z,100988.06
2022-10-23T16:34:04.826Z,100981.66
2022-10-23T16:36:32.714Z,100984.28
2022-10-23T16:39:02.814Z,100974.03
2022-10-23T16:41:29.765Z,100997.66
2022-10-23T16:43:56.732Z,100996.69
2022-10-23T16:46:23.656Z,100995.72
2022-10-23T16:48:51.709Z,100993.88
2022-10-23T16:51:21.781Z,100983.19
2022-10-23T16:53:49.316Z,100981.44
2022-10-23T16:56:18.927Z,100985.87
2022-10-23T16:58:45.900Z,100988.59
2022-10-23T17:01:16.018Z,100992.16
2022-10-23T17:03:44.853Z,100997.56
2022-10-23T17:06:13.239Z,100993.00
2022-10-23T17:08:40.753Z,101001.12
2022-10-23T17:11:11.445Z,101019.06
2022-10-23T17:13:42.688Z,101023.50
2022-10-23T17:16:18.678Z,101007.50
2022-10-23T17:18:46.555Z,101025.22
2022-10-23T17:21:15.551Z,101009.84
2022-10-23T17:23:43.213Z,100996.47
2022-10-23T17:26:12.517Z,101008.25
2022-10-23T17:28:42.268Z,101005.44
2022-10-23T17:31:14.575Z,101008.12
2022-10-23T17:33:42.331Z,100994.31
2022-10-23T17:36:10.921Z,100994.72
2022-10-23T17:38:39.437Z,100996.69
2022-10-23T17:41:08.597Z,100991.50
2022-10-23T17:43:36.736Z,100981.38
2022-10-23T17:46:05.585Z,100992.19
2022-10-23T17:48:33.256Z,101001.53
2022-10-23T17:51:06.226Z,100990.47
2022-10-23T17:53:34.866Z,100984.72
2022-10-23T17:56:07.711Z,100980.19
2022-10-23T17:58:35.787Z,100980.91
2022-10-23T18:01:07.605Z,100974.88
2022-10-23T18:03:35.489Z,100978.91
2022-10-23T18:06:17.419Z,100987.53
2022-10-23T18:08:45.707Z,100984.06
2022-10-23T18:11:18.668Z,100982.25
2022-10-23T18:13:46.105Z,100979.66
2022-10-23T18:16:13.693Z,100992.41
2022-10-23T18:18:41.919Z,100985.31
2022-10-23T18:21:09.261Z,100984.53
2022-10-23T18:23:36.804Z,100975.81
2022-10-23T18:26:05.173Z,100984.47
2022-10-23T18:28:32.649Z,100994.78
2022-10-23T18:31:02.043Z,101002.03
2022-10-23T18:33:29.191Z,101006.56
2022-10-23T18:35:56.912Z,101004.59
2022-10-23T18:38:23.742Z,100996.50
2022-10-23T18:40:54.560Z,101000.41
2022-10-23T18:43:42.132Z,100994.03
2022-10-23T18:46:14.664Z,100985.16
2022-10-23T18:48:42.703Z,100992.41
2022-10-23T18:51:21.233Z,100992.63
2022-10-23T18:53:49.544Z,100988.09
2022-10-23T18:56:22.769Z,100980.13
2022-10-23T18:58:51.082Z,100976.56
2022-10-23T19:01:19.588Z,100981.06
2022-10-23T19:03:47.489Z,100980.22
2022-10-23T19:06:15.702Z,100980.81
2022-10-23T19:08:44.156Z,100988.31
2022-10-23T19:11:12.411Z,100998.16
2022-10-23T19:13:40.453Z,101002.69
2022-10-23T19:16:13.067Z,101000.97
2022-10-23T19:18:47.897Z,101005.63
2022-10-23T19:21:18.056Z,101007.81
2022-10-23T19:23:45.145Z,100997.25
2022-10-23T19:26:13.359Z,100999.28
2022-10-23T19:28:43.314Z,100975.78
2022-10-23T19:31:11.637Z,100986.97
2022-10-23T19:33:39.035Z,100986.84
2022-10-23T19:36:11.133Z,100983.41
2022-10-23T19:38:41.422Z,100981.81
2022-10-23T19:41:08.597Z,100972.94
2022-10-23T19:43:37.659Z,100972.94
2022-10-23T19:46:09.364Z,100969.28
2022-10-23T19:48:43.591Z,100972.72
2022-10-23T19:51:12.951Z,100981.81
2022-10-23T19:53:41.375Z,100978.12
2022-10-23T19:56:10.375Z,100978.03
2022-10-23T19:58:37.643Z,100983.28
2022-10-23T20:01:14.271Z,100987.75
2022-10-23T20:03:42.184Z,100983.06
2022-10-23T20:06:13.895Z,100975.72
2022-10-23T20:08:41.572Z,100975.50
2022-10-23T20:11:09.428Z,100981.66
2022-10-23T20:13:36.687Z,100986.94
2022-10-23T20:16:04.000Z,100965.91
2022-10-23T20:18:31.070Z,100988.69
2022-10-23T20:21:01.282Z,100987.78
2022-10-23T20:23:28.190Z,100980.81
2022-10-23T20:25:55.260Z,100981.53
2022-10-23T20:28:22.224Z,100987.06
2022-10-23T20:30:49.055Z,100988.91
2022-10-23T20:33:16.029Z,100982.63
2022-10-23T20:35:43.605Z,100990.72
2022-10-23T20:38:10.812Z,100986.31
2022-10-23T20:40:37.967Z,100989.84
2022-10-23T20:43:05.023Z,100989.00
2022-10-23T20:45:32.137Z,100979.06
2022-10-23T20:47:59.047Z,100979.06
2022-10-23T20:50:26.211Z,100952.63
2022-10-23T20:52:53.286Z,100971.94
2022-10-23T20:55:20.688Z,100970.31
2022-10-23T20:57:48.727Z,100962.34
2022-10-23T21:00:15.721Z,100956.28
2022-10-23T21:02:45.773Z,100954.66
2022-10-23T21:05:14.286Z,100946.16
2022-10-23T21:07:41.167Z,100957.59
2022-10-23T21:10:08.340Z,100947.00
2022-10-23T21:12:35.126Z,100945.31
2022-10-23T21:15:01.964Z,100942.69
2022-10-23T21:17:35.362Z,100945.41
2022-10-23T21:20:02.734Z,100945.63
2022-10-23T21:22:29.701Z,100943.91
2022-10-23T21:24:58.360Z,100939.59
2022-10-23T21:27:25.229Z,100932.69
2022-10-23T21:29:52.012Z,100936.34
2022-10-23T21:32:20.313Z,100933.88
2022-10-23T21:34:47.132Z,100933.16
2022-10-23T21:37:14.876Z,100922.13
2022-10-23T21:39:43.175Z,100937.91
2022-10-23T21:42:10.653Z,100939.72
2022-10-23T21:44:37.584Z,100949.66
2022-10-23T21:47:04.563Z,100954.97
2022-10-23T21:49:31.948Z,100955.69
2022-10-23T21:51:58.774Z,100953.75
2022-10-23T21:54:25.641Z,100961.78
2022-10-23T21:56:55.633Z,100958.94
2022-10-23T21:59:27.654Z,100954.84
2022-10-23T22:01:57.135Z,100954.63
2022-10-23T22:04:24.062Z,100955.47
2022-10-23T22:06:54.856Z,100958.09
2022-10-23T22:09:22.241Z,100936.34
2022-10-23T22:11:53.126Z,100930.09
2022-10-23T22:14:20.463Z,100945.22
2022-10-23T22:16:48.082Z,100948.78
2022-10-23T22:19:17.043Z,100958.72
2022-10-23T22:21:43.997Z,100971.38
2022-10-23T22:24:10.856Z,100973.19
2022-10-23T22:26:40.822Z,100958.72
2022-10-23T22:29:10.305Z,100968.44
2022-10-23T22:31:38.083Z,100961.19
2022-10-23T22:34:18.672Z,100960.66
2022-10-23T22:36:54.719Z,100948.72
2022-10-23T22:39:22.036Z,100972.13
2022-10-23T22:41:48.983Z,100968.44
2022-10-23T22:44:15.889Z,100972.22
2022-10-23T22:46:43.468Z,100969.28
2022-10-23T22:49:10.390Z,100960.34
2022-10-23T22:51:38.632Z,100960.25
2022-10-23T22:54:05.585Z,100956.16
2022-10-23T22:56:32.475Z,100950.22
2022-10-23T22:58:59.311Z,100954.53
2022-10-23T23:01:33.127Z,100962.00
2022-10-23T23:04:08.858Z,100965.41
2022-10-23T23:06:46.474Z,100966.09
2022-10-23T23:09:17.071Z,100958.34
2022-10-23T23:11:51.694Z,100951.09
2022-10-23T23:14:23.200Z,100958.34
2022-10-23T23:16:52.393Z,100955.72
2022-10-23T23:19:19.386Z,100950.97
2022-10-23T23:21:46.157Z,100952.72
2022-10-23T23:24:12.980Z,100951.50
2022-10-23T23:26:40.090Z,100951.59
2022-10-23T23:29:06.895Z,100947.88
2022-10-23T23:31:33.756Z,100939.19
2022-10-23T23:34:01.024Z,100939.09
2022-10-23T23:36:28.455Z,100934.56
2022-10-23T23:38:56.441Z,100947.28
2022-10-23T23:41:24.232Z,100950.75
2022-10-23T23:43:53.697Z,100943.62
2022-10-23T23:46:20.562Z,100929.38
2022-10-23T23:48:49.265Z,100932.16
2022-10-23T23:51:21.300Z,100921.59
2022-10-23T23:53:48.613Z,100936.38
2022-10-23T23:56:15.492Z,100937.16
2022-10-23T23:58:42.314Z,100937.16
